Time;durP1;ratioP1;P1;durP2;ratioP2;P2;SDS_P1;SDS_P2;PMS_P1;PMS_P2;Temp;Humidity;BMP_temperature;BMP_pressure;BME280_temperature;BME280_humidity;BME280_pressure;Samples;Min_cycle;Max_cycle;Signal;HPM_P1;HPM_P2
2022/07/19 00:00:42;;;;;;;0.00;0.00;;;23.90;58.80;;;;;;5072608;28;20024;-72
2022/07/19 00:03:08;;;;;;;0.00;0.00;;;23.80;59.30;;;;;;5072536;28;20025;-72
2022/07/19 00:05:34;;;;;;;0.10;0.10;;;23.70;59.50;;;;;;5072432;28;20031;-73
2022/07/19 00:08:00;;;;;;;0.00;0.00;;;23.70;59.80;;;;;;5071120;28;20387;-73
2022/07/19 00:10:26;;;;;;;0.00;0.00;;;23.70;59.80;;;;;;5071934;28;20024;-74
2022/07/19 00:12:52;;;;;;;0.00;0.00;;;23.70;59.50;;;;;;5071124;28;20547;-73
2022/07/19 00:15:18;;;;;;;0.00;0.00;;;23.80;59.40;;;;;;5071728;28;20024;-74
2022/07/19 00:17:47;;;;;;;0.00;0.00;;;23.90;59.20;;;;;;5072787;28;20387;-74
2022/07/19 00:20:16;;;;;;;0.00;0.00;;;24.00;59.20;;;;;;5071179;28;20121;-74
2022/07/19 00:22:42;;;;;;;0.00;0.00;;;24.00;59.10;;;;;;5071073;28;20033;-74
2022/07/19 00:25:09;;;;;;;0.00;0.00;;;24.10;58.80;;;;;;5104827;28;20075;-74
2022/07/19 00:27:35;;;;;;;0.00;0.00;;;24.20;58.60;;;;;;5071106;28;20542;-74
2022/07/19 00:30:05;;;;;;;0.00;0.00;;;24.40;58.30;;;;;;5072461;28;20025;-73
2022/07/19 00:32:32;;;;;;;0.08;0.08;;;24.50;57.50;;;;;;5074616;28;20040;-74
2022/07/19 00:34:58;;;;;;;0.90;0.90;;;24.60;57.00;;;;;;5074739;28;20020;-73
2022/07/19 00:37:24;;;;;;;0.00;0.00;;;24.60;56.60;;;;;;5076236;28;20084;-73
2022/07/19 00:39:50;;;;;;;0.00;0.00;;;24.80;57.00;;;;;;5076258;28;20024;-73
2022/07/19 00:42:17;;;;;;;0.00;0.00;;;25.00;56.30;;;;;;5076079;28;20406;-73
2022/07/19 00:44:43;;;;;;;0.00;0.00;;;25.40;55.40;;;;;;5076312;28;20024;-73
2022/07/19 00:47:09;;;;;;;0.00;0.00;;;25.70;54.80;;;;;;5080898;28;20493;-73
2022/07/19 00:49:35;;;;;;;0.00;0.00;;;25.90;54.20;;;;;;5096505;28;20021;-73
2022/07/19 00:52:03;;;;;;;0.00;0.00;;;26.20;53.50;;;;;;5096648;28;20561;-73
2022/07/19 00:54:33;;;;;;;0.10;0.10;;;26.30;53.50;;;;;;5079128;28;20425;-73
2022/07/19 00:57:02;;;;;;;0.00;0.00;;;26.70;52.90;;;;;;5079396;28;20031;-73
2022/07/19 00:59:28;;;;;;;0.00;0.00;;;27.20;52.20;;;;;;5099694;28;20056;-73
2022/07/19 01:01:55;;;;;;;0.00;0.00;;;27.70;51.60;;;;;;5110793;28;20063;-73
2022/07/19 01:04:21;;;;;;;0.00;0.00;;;28.10;51.00;;;;;;5116576;28;20012;-73
2022/07/19 01:06:48;;;;;;;0.00;0.00;;;28.40;49.50;;;;;;5089463;28;20020;-73
2022/07/19 01:09:14;;;;;;;0.00;0.00;;;28.80;48.90;;;;;;5077804;28;20111;-73
2022/07/19 01:11:40;;;;;;;0.00;0.00;;;29.00;48.20;;;;;;5075539;28;20051;-73
2022/07/19 01:14:06;;;;;;;0.45;0.45;;;29.20;48.00;;;;;;5075709;28;20379;-73
2022/07/19 01:16:32;;;;;;;0.00;0.00;;;29.70;47.40;;;;;;5076857;28;20024;-73
2022/07/19 01:18:58;;;;;;;0.00;0.00;;;29.30;47.20;;;;;;5090117;28;20032;-73
2022/07/19 01:21:26;;;;;;;0.20;0.20;;;29.40;48.00;;;;;;5085146;28;20028;-73
2022/07/19 01:23:52;;;;;;;0.10;0.10;;;29.40;47.80;;;;;;5077208;28;20075;-73
2022/07/19 01:26:18;;;;;;;0.00;0.00;;;28.60;49.80;;;;;;5094255;28;20072;-72
2022/07/19 01:28:45;;;;;;;0.00;0.00;;;28.80;49.00;;;;;;5087776;28;20028;-72
2022/07/19 01:31:11;;;;;;;0.00;0.00;;;29.40;48.10;;;;;;5070286;28;20028;-72
2022/07/19 01:33:42;;;;;;;0.00;0.00;;;29.80;46.60;;;;;;5077010;28;20028;-72
2022/07/19 01:36:08;;;;;;;0.00;0.00;;;29.40;47.70;;;;;;5095177;28;20028;-73
2022/07/19 01:38:35;;;;;;;0.00;0.00;;;29.20;48.20;;;;;;5076588;28;20028;-72
2022/07/19 01:41:01;;;;;;;0.00;0.00;;;29.20;47.40;;;;;;5094725;28;20024;-72
2022/07/19 01:43:28;;;;;;;0.00;0.00;;;29.10;48.60;;;;;;5086910;28;20019;-71
2022/07/19 01:45:54;;;;;;;0.10;0.10;;;29.50;48.10;;;;;;5066837;28;20114;-72
2022/07/19 01:48:21;;;;;;;0.00;0.00;;;29.30;47.70;;;;;;5064316;28;20177;-72
2022/07/19 01:50:47;;;;;;;2.13;2.05;;;28.30;49.20;;;;;;5073555;28;20047;-72
2022/07/19 01:53:13;;;;;;;0.00;0.00;;;28.70;49.20;;;;;;5076186;28;20390;-72
2022/07/19 01:55:39;;;;;;;0.10;0.10;;;28.60;48.60;;;;;;5075742;28;20477;-72
2022/07/19 01:58:05;;;;;;;0.00;0.00;;;29.00;48.30;;;;;;5094004;28;20103;-73
2022/07/19 02:00:32;;;;;;;0.00;0.00;;;29.30;48.00;;;;;;5092853;28;20100;-73
2022/07/19 02:02:58;;;;;;;0.15;0.15;;;29.20;47.50;;;;;;5094674;28;20063;-72
2022/07/19 02:05:24;;;;;;;0.00;0.00;;;29.10;47.80;;;;;;5076091;28;20036;-73
2022/07/19 02:07:50;;;;;;;1.52;1.08;;;28.50;48.60;;;;;;5094397;28;20028;-72
2022/07/19 02:10:17;;;;;;;0.68;0.17;;;27.80;51.00;;;;;;5087382;28;20024;-73
2022/07/19 02:12:43;;;;;;;4.90;1.73;;;27.30;53.70;;;;;;5075891;28;20024;-73
2022/07/19 02:15:09;;;;;;;0.10;0.00;;;27.00;55.30;;;;;;5070214;28;20021;-73
2022/07/19 02:17:35;;;;;;;0.00;0.00;;;27.10;55.50;;;;;;5073161;28;20046;-73
2022/07/19 02:20:02;;;;;;;0.10;0.10;;;27.10;55.50;;;;;;5085820;28;20035;-73
2022/07/19 02:22:28;;;;;;;0.00;0.00;;;27.60;54.40;;;;;;5069457;28;20021;-72
2022/07/19 02:24:54;;;;;;;0.10;0.10;;;27.80;53.40;;;;;;5073595;28;20043;-72
2022/07/19 02:27:21;;;;;;;9.80;3.63;;;26.70;56.90;;;;;;5089227;28;20028;-72
2022/07/19 02:29:48;;;;;;;0.15;0.15;;;27.30;56.50;;;;;;5084737;28;20031;-75
2022/07/19 02:32:15;;;;;;;0.20;0.20;;;27.60;56.20;;;;;;5072121;28;20370;-75
2022/07/19 02:34:41;;;;;;;0.28;0.13;;;29.00;53.60;;;;;;5082526;28;20024;-75
2022/07/19 02:37:07;;;;;;;0.50;0.50;;;28.40;52.20;;;;;;5088513;28;20142;-75
2022/07/19 02:39:33;;;;;;;0.13;0.13;;;28.10;53.90;;;;;;5076997;28;20165;-77
2022/07/19 02:41:59;;;;;;;0.00;0.00;;;29.10;52.30;;;;;;5076775;28;20092;-76
2022/07/19 02:44:25;;;;;;;0.00;0.00;;;29.90;50.30;;;;;;5074726;28;20153;-76
2022/07/19 02:46:51;;;;;;;0.00;0.00;;;31.20;48.30;;;;;;5079920;28;20058;-76
2022/07/19 02:49:17;;;;;;;0.10;0.10;;;32.00;46.00;;;;;;5079648;28;20031;-75
2022/07/19 02:51:43;;;;;;;0.05;0.05;;;30.50;48.50;;;;;;5101572;28;20042;-75
2022/07/19 02:54:09;;;;;;;0.00;0.00;;;30.10;50.10;;;;;;5096208;28;20023;-75
2022/07/19 02:56:38;;;;;;;0.00;0.00;;;31.10;49.70;;;;;;5087118;28;20096;-75
2022/07/19 02:59:05;;;;;;;0.00;0.00;;;32.40;46.80;;;;;;5072082;28;20024;-74
2022/07/19 03:01:31;;;;;;;0.10;0.10;;;31.40;46.70;;;;;;5072994;28;20050;-76
2022/07/19 03:03:58;;;;;;;0.03;0.00;;;31.30;48.50;;;;;;5093164;28;20081;-75
2022/07/19 03:06:24;;;;;;;12.27;5.75;;;31.10;48.90;;;;;;5094481;28;20031;-74
2022/07/19 03:08:50;;;;;;;0.10;0.10;;;30.80;49.60;;;;;;5090987;28;20078;-75
2022/07/19 03:11:16;;;;;;;1.63;1.58;;;31.40;49.10;;;;;;5084750;28;20048;-76
2022/07/19 03:13:42;;;;;;;0.00;0.00;;;31.40;48.20;;;;;;5091265;28;20032;-75
2022/07/19 03:16:08;;;;;;;1.13;0.80;;;32.00;47.80;;;;;;5086156;28;20712;-75
2022/07/19 03:18:35;;;;;;;0.77;0.77;;;32.30;46.90;;;;;;5090658;28;20368;-75
2022/07/19 03:21:01;;;;;;;0.00;0.00;;;30.90;48.70;;;;;;5081797;28;20032;-74
2022/07/19 03:23:31;;;;;;;0.17;0.17;;;30.60;49.10;;;;;;5059867;28;20031;-73
2022/07/19 03:25:57;;;;;;;0.10;0.10;;;30.60;49.70;;;;;;5062449;28;20036;-74
2022/07/19 03:28:24;;;;;;;0.00;0.00;;;30.80;49.40;;;;;;5078761;28;20046;-74
2022/07/19 03:30:50;;;;;;;0.00;0.00;;;30.60;49.90;;;;;;5067185;28;20359;-74
2022/07/19 03:33:16;;;;;;;0.28;0.28;;;30.80;50.00;;;;;;5079990;28;20442;-74
2022/07/19 03:35:44;;;;;;;0.00;0.00;;;30.30;49.60;;;;;;5084138;28;20031;-75
2022/07/19 03:38:11;;;;;;;0.52;0.38;;;30.60;49.30;;;;;;5073168;28;20028;-74
2022/07/19 03:40:37;;;;;;;0.00;0.00;;;29.60;49.40;;;;;;5088075;28;20031;-74
2022/07/19 03:43:03;;;;;;;0.00;0.00;;;30.60;49.00;;;;;;5083979;28;20115;-75
2022/07/19 03:45:29;;;;;;;0.00;0.00;;;30.80;48.50;;;;;;5101395;28;20088;-74
2022/07/19 03:47:55;;;;;;;0.00;0.00;;;31.90;46.80;;;;;;5078536;28;20064;-75
2022/07/19 03:50:21;;;;;;;0.00;0.00;;;32.90;45.00;;;;;;5093295;28;20020;-74
2022/07/19 03:52:47;;;;;;;0.00;0.00;;;33.50;44.00;;;;;;5087302;28;20020;-74
2022/07/19 03:55:13;;;;;;;0.52;0.52;;;33.90;43.60;;;;;;5072937;28;20035;-75
2022/07/19 03:57:40;;;;;;;0.00;0.00;;;32.30;46.10;;;;;;5086304;28;20110;-74
2022/07/19 04:00:07;;;;;;;6.20;1.63;;;31.20;48.40;;;;;;5082831;28;20056;-74
2022/07/19 04:02:33;;;;;;;0.30;0.30;;;30.90;47.90;;;;;;5085496;28;20055;-73
2022/07/19 04:04:59;;;;;;;0.20;0.20;;;29.70;49.80;;;;;;5082348;28;20059;-75
2022/07/19 04:07:25;;;;;;;0.22;0.22;;;29.50;50.90;;;;;;5072367;28;20028;-75
2022/07/19 04:09:51;;;;;;;0.40;0.40;;;29.10;50.50;;;;;;5087646;28;20047;-75
2022/07/19 04:12:17;;;;;;;0.00;0.00;;;29.00;52.10;;;;;;5065739;28;20425;-75
2022/07/19 04:14:44;;;;;;;0.25;0.25;;;28.60;52.90;;;;;;5091047;28;20474;-73
2022/07/19 04:17:10;;;;;;;0.00;0.00;;;28.10;53.80;;;;;;5093085;28;20119;-74
2022/07/19 04:19:36;;;;;;;0.30;0.28;;;28.00;53.80;;;;;;5078054;28;20631;-75
2022/07/19 04:22:02;;;;;;;3.55;2.08;;;28.40;53.70;;;;;;5079578;28;20115;-75
2022/07/19 04:24:28;;;;;;;0.10;0.10;;;28.20;54.20;;;;;;5081117;28;20528;-74
2022/07/19 04:26:54;;;;;;;0.10;0.10;;;28.30;53.50;;;;;;5090405;28;20028;-76
2022/07/19 04:29:20;;;;;;;0.00;0.00;;;28.10;53.50;;;;;;5097593;28;20019;-74
2022/07/19 04:31:46;;;;;;;0.43;0.43;;;28.00;54.80;;;;;;5086302;28;20019;-74
2022/07/19 04:34:12;;;;;;;3.75;0.50;;;28.50;53.40;;;;;;5082927;28;20068;-76
2022/07/19 04:36:38;;;;;;;0.00;0.00;;;28.60;53.80;;;;;;5091802;28;20020;-76
2022/07/19 04:39:04;;;;;;;0.25;0.10;;;28.30;54.00;;;;;;5087121;28;20046;-77
2022/07/19 04:41:30;;;;;;;0.70;0.57;;;28.10;53.30;;;;;;5082573;28;20025;-77
2022/07/19 04:43:56;;;;;;;1.05;0.65;;;27.80;54.00;;;;;;5064047;28;20381;-77
2022/07/19 04:46:22;;;;;;;0.00;0.00;;;27.80;53.50;;;;;;5090318;28;20493;-78
2022/07/19 04:48:48;;;;;;;0.00;0.00;;;28.20;51.90;;;;;;5086516;28;20120;-78
2022/07/19 04:51:15;;;;;;;0.00;0.00;;;28.40;51.70;;;;;;5076092;28;20066;-77
2022/07/19 04:53:40;;;;;;;2.67;1.17;;;28.30;51.10;;;;;;5076683;28;20043;-77
2022/07/19 04:56:07;;;;;;;18.90;1.75;;;27.80;51.40;;;;;;5074969;28;20471;-77
2022/07/19 04:58:33;;;;;;;1.08;0.08;;;27.80;51.60;;;;;;5110308;28;20039;-76
2022/07/19 05:00:59;;;;;;;0.28;0.28;;;27.80;51.60;;;;;;5091539;28;20028;-76
2022/07/19 05:03:25;;;;;;;0.00;0.00;;;27.80;51.10;;;;;;5093383;28;20028;-74
2022/07/19 05:05:51;;;;;;;0.22;0.22;;;27.70;51.90;;;;;;5095583;28;20024;-76
2022/07/19 05:08:17;;;;;;;0.30;0.30;;;27.80;51.00;;;;;;5087539;28;20088;-76
2022/07/19 05:10:43;;;;;;;0.00;0.00;;;27.70;51.20;;;;;;5092499;28;20111;-76
2022/07/19 05:13:10;;;;;;;0.00;0.00;;;27.70;50.90;;;;;;5085837;28;20021;-77
2022/07/19 05:15:36;;;;;;;8.65;1.27;;;27.80;49.20;;;;;;5082349;28;20020;-76
2022/07/19 05:18:02;;;;;;;0.45;0.20;;;28.30;49.60;;;;;;5092976;28;20028;-75
2022/07/19 05:20:28;;;;;;;0.00;0.00;;;28.00;49.60;;;;;;5084355;28;20047;-75
2022/07/19 05:22:54;;;;;;;0.00;0.00;;;28.20;50.00;;;;;;5085098;28;20028;-76
2022/07/19 05:25:20;;;;;;;0.00;0.00;;;28.50;49.60;;;;;;5079372;28;20028;-77
2022/07/19 05:27:46;;;;;;;0.22;0.22;;;28.70;49.80;;;;;;5080134;28;20050;-77
2022/07/19 05:30:13;;;;;;;1.55;1.45;;;28.90;47.30;;;;;;5097430;28;20474;-78
2022/07/19 05:32:39;;;;;;;0.00;0.00;;;28.80;47.70;;;;;;5089052;28;20031;-76
2022/07/19 05:35:06;;;;;;;0.00;0.00;;;29.00;44.90;;;;;;5071909;28;20382;-75
2022/07/19 05:37:32;;;;;;;0.45;0.45;;;29.20;44.50;;;;;;5090620;28;20043;-76
2022/07/19 05:39:58;;;;;;;0.00;0.00;;;29.50;45.40;;;;;;5091155;28;20632;-75
2022/07/19 05:42:24;;;;;;;0.00;0.00;;;29.50;44.60;;;;;;5098975;28;20043;-77
2022/07/19 05:44:50;;;;;;;0.00;0.00;;;29.30;46.30;;;;;;5094333;28;20103;-76
2022/07/19 05:47:17;;;;;;;0.22;0.22;;;29.50;42.50;;;;;;5092785;28;20513;-77
2022/07/19 05:49:43;;;;;;;0.00;0.00;;;29.50;41.40;;;;;;5109330;28;20486;-77
2022/07/19 05:52:10;;;;;;;0.00;0.00;;;29.70;40.00;;;;;;5099264;28;20096;-77
2022/07/19 05:54:36;;;;;;;1.55;0.47;;;29.90;41.90;;;;;;5112745;28;20042;-76
2022/07/19 05:57:02;;;;;;;0.52;0.30;;;29.40;41.60;;;;;;5111374;28;20032;-76
2022/07/19 05:59:28;;;;;;;0.00;0.00;;;29.20;40.60;;;;;;5112432;28;20024;-75
2022/07/19 06:01:54;;;;;;;0.00;0.00;;;28.90;42.00;;;;;;5106698;28;20096;-75
2022/07/19 06:04:20;;;;;;;0.20;0.20;;;29.30;42.90;;;;;;5089896;28;20081;-77
2022/07/19 06:06:46;;;;;;;0.00;0.00;;;29.50;41.80;;;;;;5076988;28;20030;-78
2022/07/19 06:09:12;;;;;;;2.17;0.32;;;29.70;41.30;;;;;;5093741;28;20024;-77
2022/07/19 06:11:42;;;;;;;0.00;0.00;;;29.60;39.60;;;;;;5076944;28;20551;-76
2022/07/19 06:14:09;;;;;;;2.35;0.68;;;29.70;39.10;;;;;;5090123;28;20046;-77
2022/07/19 06:16:38;;;;;;;0.47;0.47;;;29.80;38.30;;;;;;5089099;28;20069;-77
2022/07/19 06:19:05;;;;;;;0.00;0.00;;;29.80;38.00;;;;;;5100776;28;20032;-77
2022/07/19 06:21:32;;;;;;;0.00;0.00;;;30.00;37.50;;;;;;5107458;28;20024;-76
2022/07/19 06:23:58;;;;;;;0.00;0.00;;;30.20;37.10;;;;;;5081644;28;20038;-79
2022/07/19 06:26:26;;;;;;;0.03;0.00;;;30.20;37.60;;;;;;5085386;28;20095;-79
2022/07/19 06:28:52;;;;;;;0.00;0.00;;;30.30;36.30;;;;;;5092126;28;20020;-77
2022/07/19 06:31:18;;;;;;;0.00;0.00;;;30.30;36.40;;;;;;5079664;28;20020;-77
2022/07/19 06:33:46;;;;;;;0.00;0.00;;;30.10;37.40;;;;;;5089436;28;20016;-77
2022/07/19 06:36:13;;;;;;;0.00;0.00;;;30.10;33.70;;;;;;5086216;28;20103;-80
2022/07/19 06:38:41;;;;;;;0.00;0.00;;;30.20;33.00;;;;;;5097047;28;20104;-78
2022/07/19 06:41:07;;;;;;;0.00;0.00;;;30.50;32.80;;;;;;5106752;28;20086;-77
2022/07/19 06:43:33;;;;;;;0.00;0.00;;;30.70;32.50;;;;;;5092061;28;20057;-76
2022/07/19 06:45:59;;;;;;;0.00;0.00;;;30.80;32.50;;;;;;5091241;28;20028;-76
2022/07/19 06:48:26;;;;;;;0.10;0.10;;;30.50;33.70;;;;;;5086309;28;20062;-78
2022/07/19 06:50:52;;;;;;;0.00;0.00;;;30.30;34.80;;;;;;5070915;28;20382;-78
2022/07/19 06:53:18;;;;;;;0.00;0.00;;;30.50;35.20;;;;;;5090665;28;20020;-78
2022/07/19 06:55:44;;;;;;;0.05;0.05;;;30.70;33.90;;;;;;5091274;28;20024;-78
2022/07/19 06:58:10;;;;;;;0.08;0.08;;;31.00;33.40;;;;;;5083961;28;20042;-77
2022/07/19 07:00:36;;;;;;;0.00;0.00;;;31.00;33.30;;;;;;5091487;28;20051;-78
2022/07/19 07:03:02;;;;;;;0.00;0.00;;;30.80;34.30;;;;;;5092733;28;20540;-77
2022/07/19 07:05:28;;;;;;;0.00;0.00;;;30.50;34.50;;;;;;5104958;28;20046;-77
2022/07/19 07:07:54;;;;;;;0.00;0.00;;;30.70;35.00;;;;;;5093190;28;20028;-79
2022/07/19 07:10:21;;;;;;;0.00;0.00;;;30.60;34.30;;;;;;5094223;28;20474;-77
2022/07/19 07:12:47;;;;;;;0.00;0.00;;;30.90;33.40;;;;;;5096031;28;20080;-78
2022/07/19 07:15:13;;;;;;;3.53;1.55;;;31.10;34.50;;;;;;5085325;28;20110;-78
2022/07/19 07:17:39;;;;;;;0.32;0.20;;;31.40;35.00;;;;;;5096071;28;20020;-77
2022/07/19 07:20:07;;;;;;;0.00;0.00;;;31.20;35.30;;;;;;5092593;28;20035;-76
2022/07/19 07:22:34;;;;;;;0.00;0.00;;;31.30;35.30;;;;;;5088780;28;20027;-78
2022/07/19 07:25:00;;;;;;;0.38;0.38;;;31.40;34.20;;;;;;5092196;28;20035;-79
2022/07/19 07:27:26;;;;;;;0.00;0.00;;;31.40;33.70;;;;;;5086778;28;20136;-80
2022/07/19 07:29:52;;;;;;;0.00;0.00;;;31.20;32.90;;;;;;5091981;28;20214;-81
2022/07/19 07:32:19;;;;;;;0.00;0.00;;;31.50;33.30;;;;;;5071843;28;20020;-81
2022/07/19 07:34:45;;;;;;;0.00;0.00;;;31.70;32.90;;;;;;5094608;28;20046;-81
2022/07/19 07:37:12;;;;;;;0.00;0.00;;;31.30;33.40;;;;;;5092235;28;20012;-80
2022/07/19 07:39:38;;;;;;;0.00;0.00;;;30.60;35.70;;;;;;5086107;28;20073;-80
2022/07/19 07:42:05;;;;;;;0.00;0.00;;;30.40;35.90;;;;;;5095360;28;20031;-79
2022/07/19 07:44:32;;;;;;;0.20;0.20;;;30.80;36.30;;;;;;5075192;28;20032;-78
2022/07/19 07:47:01;;;;;;;0.00;0.00;;;30.60;36.20;;;;;;5091642;28;20404;-79
2022/07/19 07:49:27;;;;;;;0.00;0.00;;;30.80;36.50;;;;;;5090153;28;20040;-78
2022/07/19 07:51:53;;;;;;;0.75;0.75;;;31.20;36.80;;;;;;5102908;28;20024;-80
2022/07/19 07:54:19;;;;;;;0.00;0.00;;;31.10;36.90;;;;;;5070177;28;20466;-77
2022/07/19 07:56:45;;;;;;;1.15;0.65;;;30.70;37.20;;;;;;5091796;28;20024;-77
2022/07/19 07:59:11;;;;;;;1.50;0.65;;;30.60;37.40;;;;;;5089668;28;20069;-76
2022/07/19 08:01:39;;;;;;;0.00;0.00;;;30.50;38.30;;;;;;5092821;28;20020;-76
2022/07/19 08:04:05;;;;;;;0.00;0.00;;;30.60;38.50;;;;;;5092497;28;20028;-75
2022/07/19 08:06:31;;;;;;;0.00;0.00;;;31.10;38.00;;;;;;5090330;28;20028;-76
2022/07/19 08:08:57;;;;;;;0.00;0.00;;;31.60;36.80;;;;;;5090357;28;20028;-76
2022/07/19 08:11:23;;;;;;;0.10;0.10;;;31.90;36.50;;;;;;5092311;28;20089;-76
2022/07/19 08:13:49;;;;;;;0.10;0.10;;;31.80;36.40;;;;;;5096235;28;20466;-76
2022/07/19 08:16:16;;;;;;;1.60;0.75;;;31.70;36.60;;;;;;5076474;28;20453;-78
2022/07/19 08:18:43;;;;;;;0.00;0.00;;;31.60;37.30;;;;;;5081943;28;20024;-76
2022/07/19 08:21:09;;;;;;;0.00;0.00;;;31.90;37.30;;;;;;5077094;28;20477;-76
2022/07/19 08:23:36;;;;;;;0.08;0.08;;;32.20;36.50;;;;;;5091201;28;20205;-77
2022/07/19 08:26:02;;;;;;;0.30;0.10;;;32.40;35.80;;;;;;5108857;28;20028;-76
2022/07/19 08:28:28;;;;;;;0.00;0.00;;;31.70;36.10;;;;;;5082946;28;20039;-77
2022/07/19 08:30:54;;;;;;;0.00;0.00;;;31.80;36.30;;;;;;5075248;28;20451;-76
2022/07/19 08:33:20;;;;;;;0.10;0.10;;;31.70;36.20;;;;;;5074178;28;20042;-77
2022/07/19 08:35:46;;;;;;;0.00;0.00;;;31.80;36.30;;;;;;5093470;28;20027;-77
2022/07/19 08:38:12;;;;;;;0.00;0.00;;;31.80;35.30;;;;;;5091729;28;20031;-76
2022/07/19 08:40:42;;;;;;;0.00;0.00;;;31.90;35.40;;;;;;5073861;28;20038;-77
2022/07/19 08:43:09;;;;;;;0.00;0.00;;;32.00;35.10;;;;;;5086639;28;20054;-78
2022/07/19 08:45:41;;;;;;;0.00;0.00;;;31.80;35.60;;;;;;5072756;28;20059;-75
2022/07/19 08:48:07;;;;;;;0.08;0.03;;;31.80;35.50;;;;;;5095201;28;20043;-75
2022/07/19 08:50:34;;;;;;;0.00;0.00;;;31.90;36.10;;;;;;5075440;28;20020;-78
2022/07/19 08:53:01;;;;;;;0.38;0.38;;;31.90;35.40;;;;;;5078394;28;20031;-77
2022/07/19 08:55:27;;;;;;;0.00;0.00;;;31.90;34.80;;;;;;5082774;28;20024;-78
2022/07/19 08:57:57;;;;;;;0.03;0.03;;;31.80;34.50;;;;;;5093576;28;20060;-76
2022/07/19 09:00:24;;;;;;;0.00;0.00;;;32.00;35.10;;;;;;5091923;28;20095;-76
2022/07/19 09:03:07;;;;;;;0.08;0.08;;;32.20;34.20;;;;;;5083220;28;20070;-78
2022/07/19 09:05:34;;;;;;;0.47;0.47;;;32.20;34.30;;;;;;5092703;28;20046;-74
2022/07/19 09:08:15;;;;;;;1.33;0.40;;;32.40;33.80;;;;;;5102833;28;20035;-77
2022/07/19 09:11:14;;;;;;;0.22;0.22;;;32.20;33.40;;;;;;5094960;28;20016;-77
2022/07/19 09:13:31;;;;;;;0.00;0.00;;;32.10;34.10;;;;;;5102957;28;20355;-77
2022/07/19 09:15:57;;;;;;;0.00;0.00;;;32.40;33.80;;;;;;5090879;28;20025;-78
2022/07/19 09:18:26;;;;;;;0.00;0.00;;;32.70;33.30;;;;;;5088731;28;20438;-78
2022/07/19 09:20:55;;;;;;;1.65;1.45;;;32.20;34.00;;;;;;5095744;28;20031;-80
2022/07/19 09:23:21;;;;;;;0.00;0.00;;;32.10;34.20;;;;;;5068455;28;20024;-77
2022/07/19 09:25:50;;;;;;;0.10;0.10;;;31.90;33.40;;;;;;5081322;28;20031;-76
2022/07/19 09:28:18;;;;;;;0.10;0.10;;;31.70;33.40;;;;;;5073373;28;20156;-77
2022/07/19 09:30:51;;;;;;;0.52;0.52;;;31.80;33.70;;;;;;5075770;28;20047;-79
2022/07/19 09:33:22;;;;;;;0.03;0.03;;;32.00;33.60;;;;;;5076134;28;20365;-77
2022/07/19 09:35:54;;;;;;;0.00;0.00;;;32.20;33.30;;;;;;5090253;28;20023;-78
2022/07/19 09:38:25;;;;;;;0.40;0.10;;;31.90;33.80;;;;;;5089824;28;20028;-78
2022/07/19 09:41:11;;;;;;;0.00;0.00;;;31.80;33.70;;;;;;5076177;28;20356;-76
2022/07/19 09:44:00;;;;;;;0.00;0.00;;;32.10;33.80;;;;;;5083339;28;20027;-77
2022/07/19 09:46:38;;;;;;;0.00;0.00;;;32.40;34.00;;;;;;5106175;28;20051;-74
2022/07/19 09:49:14;;;;;;;0.00;0.00;;;32.20;33.00;;;;;;5078054;28;20058;-75
2022/07/19 09:51:49;;;;;;;0.00;0.00;;;32.40;33.70;;;;;;5096805;28;20107;-74
2022/07/19 09:54:18;;;;;;;0.00;0.00;;;32.40;32.80;;;;;;5093724;28;20023;-75
2022/07/19 09:56:45;;;;;;;0.00;0.00;;;32.40;32.80;;;;;;5094459;28;20032;-76
2022/07/19 09:59:13;;;;;;;0.00;0.00;;;32.40;33.10;;;;;;5095735;28;20490;-76
2022/07/19 10:01:40;;;;;;;0.30;0.30;;;32.60;32.80;;;;;;5095403;28;20083;-75
2022/07/19 10:04:11;;;;;;;0.00;0.00;;;32.80;32.30;;;;;;5097013;28;20496;-75
2022/07/19 10:06:39;;;;;;;6.88;6.32;;;32.90;32.10;;;;;;5087330;28;20037;-75
2022/07/19 10:09:07;;;;;;;0.00;0.00;;;32.70;32.00;;;;;;5096391;28;20423;-76
2022/07/19 10:11:34;;;;;;;0.00;0.00;;;32.80;32.30;;;;;;5095572;28;20020;-76
2022/07/19 10:14:00;;;;;;;0.00;0.00;;;32.60;32.80;;;;;;5095469;28;20103;-76
2022/07/19 10:16:48;;;;;;;0.00;0.00;;;32.50;32.80;;;;;;5099356;28;20039;-75
2022/07/19 10:19:40;;;;;;;0.00;0.00;;;32.40;31.80;;;;;;5093264;28;20028;-75
2022/07/19 10:22:20;;;;;;;0.38;0.38;;;32.00;32.40;;;;;;5087326;28;20040;-75
2022/07/19 10:24:49;;;;;;;0.00;0.00;;;32.00;32.80;;;;;;5094705;28;20016;-75
2022/07/19 10:27:18;;;;;;;0.10;0.10;;;31.70;32.90;;;;;;5078095;28;20028;-76
2022/07/19 10:29:45;;;;;;;0.05;0.00;;;31.30;33.40;;;;;;5101713;28;20393;-75
2022/07/19 10:32:13;;;;;;;0.00;0.00;;;31.30;33.40;;;;;;5096627;28;20024;-79
2022/07/19 10:34:40;;;;;;;0.00;0.00;;;31.30;33.40;;;;;;5098955;28;20051;-76
2022/07/19 10:37:06;;;;;;;0.00;0.00;;;31.60;34.50;;;;;;5084596;28;20374;-77
2022/07/19 10:39:35;;;;;;;0.00;0.00;;;31.70;33.30;;;;;;5092117;28;20016;-76
2022/07/19 10:42:13;;;;;;;0.00;0.00;;;31.80;33.50;;;;;;5090238;28;20044;-77
2022/07/19 10:44:59;;;;;;;0.00;0.00;;;31.70;32.90;;;;;;5068605;28;20016;-75
2022/07/19 10:47:37;;;;;;;0.30;0.30;;;31.60;32.90;;;;;;5097757;28;20028;-79
2022/07/19 10:50:07;;;;;;;0.00;0.00;;;31.50;33.10;;;;;;5082306;28;20019;-78
2022/07/19 10:52:38;;;;;;;0.22;0.22;;;31.60;32.90;;;;;;5074333;28;20123;-77
2022/07/19 10:55:34;;;;;;;0.00;0.00;;;31.60;32.70;;;;;;5097852;28;20110;-76
2022/07/19 10:58:07;;;;;;;0.00;0.00;;;31.70;31.80;;;;;;5088400;28;20046;-79
2022/07/19 11:00:51;;;;;;;0.00;0.00;;;31.90;32.20;;;;;;5081019;28;20107;-78
2022/07/19 11:03:23;;;;;;;0.00;0.00;;;31.80;32.10;;;;;;5092280;28;20019;-77
2022/07/19 11:06:04;;;;;;;0.20;0.20;;;31.70;32.30;;;;;;5073974;28;20391;-78
2022/07/19 11:08:37;;;;;;;0.00;0.00;;;31.80;32.50;;;;;;5082605;28;20036;-77
2022/07/19 11:11:08;;;;;;;0.00;0.00;;;31.60;32.70;;;;;;5088668;28;20490;-80
2022/07/19 11:13:36;;;;;;;0.00;0.00;;;31.70;32.80;;;;;;5079191;28;20020;-80
2022/07/19 11:16:03;;;;;;;0.00;0.00;;;31.80;32.50;;;;;;5078491;28;20482;-78
2022/07/19 11:18:30;;;;;;;0.00;0.00;;;31.60;33.00;;;;;;5106446;28;20027;-78
2022/07/19 11:21:01;;;;;;;0.00;0.00;;;31.70;32.30;;;;;;5104132;28;20081;-78
2022/07/19 11:23:35;;;;;;;0.88;0.73;;;31.40;33.20;;;;;;5089856;28;20016;-77
2022/07/19 11:26:26;;;;;;;0.00;0.00;;;31.30;32.20;;;;;;5063631;28;20028;-79
2022/07/19 11:28:52;;;;;;;0.00;0.00;;;30.90;32.50;;;;;;5093291;28;20107;-81
2022/07/19 11:31:22;;;;;;;14.70;13.85;;;31.00;32.90;;;;;;5074537;28;20024;-80
2022/07/19 11:33:52;;;;;;;0.08;0.00;;;31.20;32.60;;;;;;5093023;28;20100;-76
2022/07/19 11:36:19;;;;;;;0.10;0.10;;;31.20;31.80;;;;;;5091487;28;20537;-77
2022/07/19 11:38:51;;;;;;;0.00;0.00;;;31.10;32.50;;;;;;5087260;28;20069;-77
2022/07/19 11:41:21;;;;;;;0.00;0.00;;;31.10;32.40;;;;;;5073327;28;20032;-76
2022/07/19 11:44:03;;;;;;;0.00;0.00;;;31.20;33.00;;;;;;5089300;28;20062;-78
2022/07/19 11:46:40;;;;;;;0.00;0.00;;;31.00;33.70;;;;;;5099805;28;20423;-79
2022/07/19 11:49:08;;;;;;;7.32;4.38;;;31.10;33.40;;;;;;5089368;28;20202;-76
2022/07/19 11:51:35;;;;;;;0.00;0.00;;;31.00;33.40;;;;;;5088278;28;20024;-75
2022/07/19 11:54:04;;;;;;;2.70;2.13;;;31.00;33.10;;;;;;5093677;28;20020;-76
2022/07/19 11:56:32;;;;;;;0.00;0.00;;;30.90;33.00;;;;;;5100264;28;20044;-74
2022/07/19 11:59:01;;;;;;;0.00;0.00;;;31.00;33.50;;;;;;5108267;28;20084;-75
2022/07/19 12:01:37;;;;;;;0.00;0.00;;;31.20;33.20;;;;;;5093207;28;20020;-74
2022/07/19 12:04:10;;;;;;;0.00;0.00;;;31.20;34.10;;;;;;5080159;28;20160;-75
2022/07/19 12:06:42;;;;;;;0.00;0.00;;;31.40;33.40;;;;;;5104626;28;20049;-75
2022/07/19 12:09:12;;;;;;;0.00;0.00;;;31.50;32.60;;;;;;5074603;28;20520;-75
2022/07/19 12:11:41;;;;;;;0.00;0.00;;;31.40;33.10;;;;;;5088612;28;20394;-74
2022/07/19 12:14:24;;;;;;;0.00;0.00;;;31.40;32.30;;;;;;5076287;28;20047;-74
2022/07/19 12:17:11;;;;;;;0.00;0.00;;;31.20;32.70;;;;;;5092242;28;20166;-76
2022/07/19 12:19:38;;;;;;;0.00;0.00;;;31.20;32.80;;;;;;5104719;28;20025;-74
2022/07/19 12:22:04;;;;;;;0.00;0.00;;;31.10;33.00;;;;;;5065556;28;20040;-74
2022/07/19 12:24:31;;;;;;;0.10;0.10;;;31.20;33.00;;;;;;5084015;28;20033;-72
2022/07/19 12:27:03;;;;;;;0.22;0.22;;;31.00;32.50;;;;;;5095160;28;20545;-74
2022/07/19 12:29:56;;;;;;;0.00;0.00;;;31.00;32.80;;;;;;5096367;28;20056;-73
2022/07/19 12:32:37;;;;;;;0.00;0.00;;;31.00;33.50;;;;;;5090179;28;20394;-73
2022/07/19 12:35:05;;;;;;;0.00;0.00;;;31.00;33.10;;;;;;5065288;28;20081;-73
2022/07/19 12:37:40;;;;;;;0.00;0.00;;;30.90;32.90;;;;;;5087486;28;20089;-73
2022/07/19 12:40:21;;;;;;;0.00;0.00;;;30.90;33.50;;;;;;5103380;28;20020;-72
2022/07/19 12:42:50;;;;;;;0.00;0.00;;;30.90;33.60;;;;;;5096673;28;20064;-72
2022/07/19 12:45:22;;;;;;;0.00;0.00;;;31.00;33.90;;;;;;5085807;28;20386;-73
2022/07/19 12:47:50;;;;;;;0.00;0.00;;;31.10;33.20;;;;;;5085204;28;20044;-73
2022/07/19 12:50:26;;;;;;;0.00;0.00;;;31.20;33.20;;;;;;5094945;28;20024;-74